Time;durP1;ratioP1;P1;durP2;ratioP2;P2;SDS_P1;SDS_P2;PMS_P1;PMS_P2;Temp;Humidity;BMP_temperature;BMP_pressure;BME280_temperature;BME280_humidity;BME280_pressure;Samples;Min_cycle;Max_cycle;Signal;HPM_P1;HPM_P2
2022/04/28 00:00:19;;;;;;;14.77;9.80;;;7.70;99.90;;;;;;5006466;28;20137;-82
2022/04/28 00:02:46;;;;;;;13.43;9.30;;;7.70;99.90;;;;;;4992722;28;20056;-82
2022/04/28 00:05:12;;;;;;;15.13;9.45;;;7.70;99.90;;;;;;4989999;28;20474;-82
2022/04/28 00:07:38;;;;;;;14.18;9.13;;;7.60;99.90;;;;;;4990324;28;20497;-82
2022/04/28 00:10:05;;;;;;;11.20;8.00;;;7.60;99.90;;;;;;5007853;28;20026;-82
2022/04/28 00:12:32;;;;;;;13.98;8.93;;;7.60;99.90;;;;;;4990847;28;20030;-82
2022/04/28 00:14:58;;;;;;;17.80;9.40;;;7.60;99.90;;;;;;5009459;28;20164;-82
2022/04/28 00:17:23;;;;;;;13.05;8.80;;;7.60;99.90;;;;;;4990686;28;20103;-82
2022/04/28 00:19:49;;;;;;;13.10;8.75;;;7.60;99.90;;;;;;5004243;28;20525;-82
2022/04/28 00:22:16;;;;;;;12.82;8.38;;;7.50;99.90;;;;;;4988813;28;20026;-82
2022/04/28 00:24:43;;;;;;;13.73;9.15;;;7.50;99.90;;;;;;4992010;28;20058;-82
2022/04/28 00:27:09;;;;;;;13.88;8.80;;;7.40;99.90;;;;;;5007031;28;20056;-82
2022/04/28 00:29:34;;;;;;;13.85;9.60;;;7.40;99.90;;;;;;4992829;28;20108;-82
2022/04/28 00:32:01;;;;;;;13.65;8.88;;;7.30;99.90;;;;;;4990469;28;25477;-82
2022/04/28 00:34:26;;;;;;;13.55;8.80;;;7.30;99.90;;;;;;4990928;28;20030;-82
2022/04/28 00:36:52;;;;;;;13.93;8.50;;;7.30;99.90;;;;;;4990393;28;20030;-82
2022/04/28 00:39:18;;;;;;;13.57;8.80;;;7.30;99.90;;;;;;4992236;28;20029;-82
2022/04/28 00:41:43;;;;;;;14.07;8.93;;;7.20;99.90;;;;;;5006042;28;20034;-83
2022/04/28 00:44:11;;;;;;;17.08;9.80;;;7.20;99.90;;;;;;4993262;28;20034;-80
2022/04/28 00:46:38;;;;;;;12.73;8.23;;;7.10;99.90;;;;;;5001091;28;20461;-80
2022/04/28 00:52:08;;;;;;;13.55;8.85;;;7.10;99.90;;;;;;4929392;29;20024;-80
2022/04/28 00:54:34;;;;;;;13.20;8.23;;;7.10;99.90;;;;;;4930233;29;20036;-80
2022/04/28 00:57:00;;;;;;;13.05;8.57;;;7.10;99.90;;;;;;4965002;28;20132;-80
2022/04/28 00:59:29;;;;;;;14.45;8.20;;;7.10;99.90;;;;;;5008789;28;20671;-80
2022/04/28 01:01:55;;;;;;;15.48;8.43;;;7.00;99.90;;;;;;5009270;28;20414;-80
2022/04/28 01:04:20;;;;;;;15.98;8.73;;;7.00;99.90;;;;;;5009482;28;20105;-80
2022/04/28 01:06:46;;;;;;;13.10;8.60;;;7.00;99.90;;;;;;4988551;28;20113;-80
2022/04/28 01:09:14;;;;;;;11.77;7.72;;;7.00;99.90;;;;;;5008175;28;20026;-80
2022/04/28 01:11:41;;;;;;;13.90;7.93;;;6.90;99.90;;;;;;4987082;28;20037;-80
2022/04/28 01:14:06;;;;;;;13.90;8.52;;;6.90;99.90;;;;;;5005518;28;20029;-80
2022/04/28 01:16:32;;;;;;;14.60;9.05;;;6.90;99.90;;;;;;4992396;28;20093;-80
2022/04/28 01:18:59;;;;;;;11.90;7.53;;;6.80;99.90;;;;;;5005651;28;20482;-80
2022/04/28 01:21:25;;;;;;;11.75;7.63;;;6.80;99.90;;;;;;5005347;28;20030;-79
2022/04/28 01:23:51;;;;;;;14.05;8.88;;;6.80;99.90;;;;;;5006516;28;20033;-80
2022/04/28 01:26:16;;;;;;;11.55;8.15;;;6.70;99.90;;;;;;5009568;28;20466;-80
2022/04/28 01:28:42;;;;;;;18.10;8.23;;;6.70;99.90;;;;;;5009161;28;20037;-80
2022/04/28 01:31:08;;;;;;;12.55;8.15;;;6.70;99.90;;;;;;4989170;28;20026;-80
2022/04/28 01:33:34;;;;;;;13.07;8.15;;;6.60;99.90;;;;;;4987433;28;20056;-80
2022/04/28 01:35:59;;;;;;;12.52;7.55;;;6.60;99.90;;;;;;5007968;28;20026;-80
2022/04/28 01:38:25;;;;;;;14.63;7.40;;;6.50;99.90;;;;;;5005590;28;20057;-80
2022/04/28 01:40:51;;;;;;;11.60;8.60;;;6.50;99.90;;;;;;5007719;28;20022;-80
2022/04/28 01:43:17;;;;;;;13.00;8.00;;;6.50;99.90;;;;;;5001284;28;20022;-80
2022/04/28 01:45:43;;;;;;;12.23;8.25;;;6.50;99.90;;;;;;5008495;28;20105;-80
2022/04/28 01:48:09;;;;;;;12.52;8.30;;;6.50;99.90;;;;;;4986440;28;20026;-80
2022/04/28 01:50:35;;;;;;;15.23;8.73;;;6.40;99.90;;;;;;5006604;28;20034;-80
2022/04/28 01:55:45;;;;;;;12.05;7.80;;;6.30;99.90;;;;;;5005753;28;20532;-80
2022/04/28 01:58:10;;;;;;;13.10;8.20;;;6.30;99.90;;;;;;5002028;28;20029;-80
2022/04/28 02:00:36;;;;;;;13.27;8.55;;;6.20;99.90;;;;;;5004020;28;20565;-80
2022/04/28 02:03:02;;;;;;;13.55;7.97;;;6.20;99.90;;;;;;5005018;28;20312;-80
2022/04/28 02:05:28;;;;;;;11.63;7.78;;;6.10;99.90;;;;;;4988773;28;20454;-81
2022/04/28 02:07:54;;;;;;;13.50;8.10;;;6.10;99.90;;;;;;4999851;28;20109;-79
2022/04/28 02:10:20;;;;;;;12.60;8.57;;;6.20;99.90;;;;;;5006288;28;20108;-80
2022/04/28 02:12:45;;;;;;;14.45;9.52;;;6.10;99.90;;;;;;5003806;28;20467;-80
2022/04/28 02:15:11;;;;;;;16.83;9.25;;;6.10;99.90;;;;;;4988229;28;20018;-80
2022/04/28 02:17:39;;;;;;;14.65;8.80;;;6.10;99.90;;;;;;4986606;28;20399;-80
2022/04/28 02:20:09;;;;;;;14.23;8.57;;;6.10;99.90;;;;;;5005227;28;20038;-80
2022/04/28 02:22:36;;;;;;;14.38;8.85;;;6.00;99.90;;;;;;5006892;28;20486;-79
2022/04/28 02:25:03;;;;;;;17.02;8.70;;;6.00;99.90;;;;;;5002393;28;20104;-80
2022/04/28 02:27:28;;;;;;;15.07;8.82;;;6.00;99.90;;;;;;4990065;28;20037;-80
2022/04/28 02:29:57;;;;;;;13.23;8.75;;;6.00;99.90;;;;;;5004511;28;20060;-79
2022/04/28 02:32:22;;;;;;;13.77;8.52;;;5.90;99.90;;;;;;5000995;28;20037;-80
2022/04/28 02:34:48;;;;;;;13.55;8.30;;;5.90;99.90;;;;;;5005940;28;20034;-80
2022/04/28 02:37:14;;;;;;;14.57;8.50;;;5.80;99.90;;;;;;5005294;28;20030;-80
2022/04/28 02:39:40;;;;;;;17.45;9.15;;;5.80;99.90;;;;;;5009682;28;20067;-80
2022/04/28 02:42:06;;;;;;;12.95;8.60;;;5.80;99.90;;;;;;5004197;28;20498;-80
2022/04/28 02:44:32;;;;;;;14.10;8.85;;;5.80;99.90;;;;;;5004258;28;20439;-80
2022/04/28 02:46:57;;;;;;;15.80;9.75;;;5.80;99.90;;;;;;5001583;28;20041;-80
2022/04/28 02:49:24;;;;;;;14.65;9.55;;;5.80;99.90;;;;;;5005368;28;20028;-80
2022/04/28 02:51:49;;;;;;;15.25;9.07;;;5.70;99.90;;;;;;5001809;28;20033;-80
2022/04/28 02:54:15;;;;;;;18.15;9.77;;;5.70;99.90;;;;;;4988094;28;21145;-79
2022/04/28 02:56:41;;;;;;;15.35;9.73;;;5.60;99.90;;;;;;5006363;28;20037;-80
2022/04/28 02:59:07;;;;;;;16.10;9.80;;;5.60;99.90;;;;;;5005218;28;20041;-79
2022/04/28 03:01:33;;;;;;;14.32;9.18;;;5.60;99.90;;;;;;5012452;28;20044;-80
2022/04/28 03:03:58;;;;;;;16.52;9.63;;;5.60;99.90;;;;;;5001423;28;20018;-80
2022/04/28 03:11:53;;;;;;;15.80;8.90;;;5.60;99.90;;;;;;5004133;28;20088;-80
2022/04/28 03:14:21;;;;;;;17.63;9.65;;;5.60;99.90;;;;;;5013387;23;20165;-71
2022/04/28 03:16:47;;;;;;;16.05;9.45;;;5.60;99.90;;;;;;4986202;28;20036;-71
2022/04/28 03:19:12;;;;;;;14.77;9.40;;;5.60;99.90;;;;;;4989180;28;20031;-71
2022/04/28 03:21:38;;;;;;;18.13;9.52;;;5.50;99.90;;;;;;4989417;28;20110;-71
2022/04/28 03:24:04;;;;;;;15.98;10.13;;;5.40;99.90;;;;;;4971302;28;20398;-71
2022/04/28 03:26:31;;;;;;;13.10;8.65;;;5.40;99.90;;;;;;4976958;28;20022;-70
2022/04/28 03:28:57;;;;;;;14.77;9.27;;;5.40;99.90;;;;;;4994232;28;20030;-71
2022/04/28 03:31:23;;;;;;;15.35;9.15;;;5.40;99.90;;;;;;4991460;28;20042;-70
2022/04/28 03:33:49;;;;;;;17.55;10.27;;;5.40;99.90;;;;;;4987410;28;20104;-70
2022/04/28 03:38:59;;;;;;;16.58;10.27;;;5.30;99.90;;;;;;4993830;28;20033;-71
2022/04/28 03:41:24;;;;;;;16.45;10.00;;;5.30;99.90;;;;;;4990837;28;20031;-71
2022/04/28 03:43:50;;;;;;;13.98;9.10;;;5.30;99.90;;;;;;4974231;28;20105;-71
2022/04/28 03:46:17;;;;;;;14.18;9.02;;;5.20;99.90;;;;;;4991208;28;20106;-71
2022/04/28 03:48:44;;;;;;;16.60;10.55;;;5.20;99.90;;;;;;4988482;28;20027;-71
2022/04/28 03:51:10;;;;;;;16.50;10.23;;;5.20;99.90;;;;;;4989649;28;20131;-71
2022/04/28 03:53:35;;;;;;;19.65;10.63;;;5.20;99.90;;;;;;4978877;28;20056;-71
2022/04/28 03:56:01;;;;;;;15.50;9.70;;;5.20;99.90;;;;;;4988374;28;20495;-70
2022/04/28 03:58:27;;;;;;;16.35;10.18;;;5.20;99.90;;;;;;4971960;28;20031;-71
2022/04/28 04:00:53;;;;;;;19.40;10.90;;;5.10;99.90;;;;;;4988353;28;20093;-72
2022/04/28 04:03:20;;;;;;;19.27;9.82;;;5.10;99.90;;;;;;4997327;28;20084;-73
2022/04/28 04:05:47;;;;;;;18.63;11.10;;;5.10;99.90;;;;;;4996132;28;20018;-72
2022/04/28 04:08:13;;;;;;;19.95;10.25;;;5.10;99.90;;;;;;4989256;28;20077;-72
2022/04/28 04:10:39;;;;;;;18.67;10.93;;;5.10;99.90;;;;;;4989864;28;20084;-72
2022/04/28 04:13:05;;;;;;;18.95;10.77;;;5.00;99.90;;;;;;4991521;28;20064;-72
2022/04/28 04:15:32;;;;;;;19.02;10.55;;;5.00;99.90;;;;;;4978899;28;20034;-72
2022/04/28 04:17:58;;;;;;;22.48;11.27;;;5.00;99.90;;;;;;4995618;28;20030;-71
2022/04/28 04:20:25;;;;;;;20.85;11.15;;;5.00;99.90;;;;;;4992482;28;20033;-70
2022/04/28 04:22:52;;;;;;;18.30;10.75;;;5.00;99.90;;;;;;4990382;28;20023;-71
2022/04/28 04:25:18;;;;;;;17.95;10.43;;;5.00;99.90;;;;;;4990723;28;20029;-71
2022/04/28 04:27:44;;;;;;;19.30;9.85;;;5.00;99.90;;;;;;4977282;28;20026;-71
2022/04/28 04:32:54;;;;;;;16.85;9.90;;;5.00;99.90;;;;;;4987766;28;20061;-71
2022/04/28 04:35:21;;;;;;;18.10;9.93;;;5.00;99.90;;;;;;4973248;28;20054;-71
2022/04/28 04:37:47;;;;;;;17.95;11.07;;;5.00;99.90;;;;;;4991003;28;20049;-70
2022/04/28 04:40:13;;;;;;;16.63;10.93;;;5.00;99.90;;;;;;4988165;28;20062;-71
2022/04/28 04:42:39;;;;;;;22.90;12.00;;;5.00;99.90;;;;;;4980539;28;20364;-71
2022/04/28 04:45:09;;;;;;;22.40;12.95;;;5.00;99.90;;;;;;4982908;28;20022;-72
2022/04/28 04:47:35;;;;;;;28.02;12.55;;;5.00;99.90;;;;;;4982528;28;20056;-73
2022/04/28 04:50:02;;;;;;;30.13;14.25;;;5.00;99.90;;;;;;4976963;28;20022;-71
2022/04/28 04:52:27;;;;;;;27.83;12.50;;;5.00;99.90;;;;;;4974811;28;20034;-71
2022/04/28 04:54:53;;;;;;;23.30;12.35;;;5.00;99.90;;;;;;4969065;28;20030;-73
2022/04/28 04:57:18;;;;;;;23.40;11.60;;;5.00;99.90;;;;;;4981516;28;20026;-70
2022/04/28 04:59:44;;;;;;;22.60;12.73;;;5.00;99.90;;;;;;4965961;28;20511;-71
2022/04/28 05:02:10;;;;;;;27.38;12.63;;;5.10;99.90;;;;;;4987074;28;20125;-71
2022/04/28 05:04:35;;;;;;;25.92;13.05;;;5.00;99.90;;;;;;4989630;28;20046;-71
2022/04/28 05:07:01;;;;;;;24.00;12.30;;;5.10;99.90;;;;;;4988922;28;20426;-71
2022/04/28 05:09:27;;;;;;;25.38;13.10;;;5.30;99.90;;;;;;4987713;28;20030;-71
2022/04/28 05:11:52;;;;;;;20.02;11.65;;;5.40;99.90;;;;;;4986250;28;20038;-71
2022/04/28 05:14:18;;;;;;;23.38;10.88;;;5.70;99.90;;;;;;4982699;28;21914;-72
2022/04/28 05:16:43;;;;;;;19.38;10.65;;;5.90;99.90;;;;;;4981676;28;20113;-70
2022/04/28 05:19:09;;;;;;;22.20;10.50;;;6.10;99.90;;;;;;4980993;28;20045;-71
2022/04/28 05:21:35;;;;;;;18.27;11.25;;;6.30;99.90;;;;;;4993155;28;20031;-71
2022/04/28 05:24:00;;;;;;;21.25;12.15;;;6.50;99.90;;;;;;4985697;28;20022;-70
2022/04/28 05:26:26;;;;;;;21.10;13.13;;;6.70;99.90;;;;;;4980271;28;20097;-70
2022/04/28 05:28:52;;;;;;;21.42;13.05;;;6.90;99.90;;;;;;4983472;28;20033;-71
2022/04/28 05:31:17;;;;;;;17.35;12.32;;;7.10;99.90;;;;;;4964093;28;20418;-71
2022/04/28 05:33:43;;;;;;;19.05;12.38;;;7.30;99.90;;;;;;4986822;28;20038;-71
2022/04/28 05:36:11;;;;;;;18.13;12.63;;;7.40;99.90;;;;;;4983022;28;20018;-71
2022/04/28 05:38:37;;;;;;;22.17;13.25;;;7.60;99.90;;;;;;4957754;28;20034;-71
2022/04/28 05:41:04;;;;;;;22.67;13.02;;;7.70;99.90;;;;;;4988681;28;20034;-71
2022/04/28 05:46:15;;;;;;;17.92;11.88;;;8.00;99.90;;;;;;4984752;28;20034;-71
2022/04/28 05:48:41;;;;;;;17.52;11.88;;;8.10;99.90;;;;;;4966337;28;20487;-72
2022/04/28 05:51:07;;;;;;;19.52;12.65;;;8.30;99.90;;;;;;4995118;28;20072;-72
2022/04/28 05:53:32;;;;;;;21.00;13.13;;;8.50;99.90;;;;;;4967968;28;20029;-73
2022/04/28 05:55:58;;;;;;;18.52;13.05;;;8.60;99.90;;;;;;4976919;28;20054;-70
2022/04/28 05:58:24;;;;;;;19.77;12.98;;;8.70;99.90;;;;;;4969237;28;20081;-70
2022/04/28 06:00:49;;;;;;;20.17;12.10;;;8.70;99.90;;;;;;4978763;28;20042;-70
2022/04/28 06:03:15;;;;;;;19.23;12.82;;;8.80;99.90;;;;;;4964985;28;20099;-70
2022/04/28 06:05:40;;;;;;;18.63;12.35;;;8.80;99.90;;;;;;4987980;28;20041;-70
2022/04/28 06:08:06;;;;;;;22.48;12.90;;;8.90;99.90;;;;;;4980770;28;20051;-70
2022/04/28 06:10:32;;;;;;;18.63;12.65;;;8.90;99.90;;;;;;4982143;28;21513;-70
2022/04/28 06:12:57;;;;;;;19.90;12.93;;;8.80;99.90;;;;;;4977361;28;20038;-70
2022/04/28 06:15:23;;;;;;;19.73;12.95;;;8.90;99.90;;;;;;4980121;28;20049;-70
2022/04/28 06:17:49;;;;;;;19.25;12.48;;;8.90;99.90;;;;;;4964493;28;20434;-70
2022/04/28 06:20:15;;;;;;;38.17;20.10;;;8.80;99.90;;;;;;5005372;23;22641;-70
2022/04/28 06:22:41;;;;;;;28.40;15.75;;;8.70;99.90;;;;;;5010188;28;20026;-70
2022/04/28 06:25:07;;;;;;;28.65;16.25;;;8.60;99.90;;;;;;5008498;28;20080;-70
2022/04/28 06:27:34;;;;;;;44.35;21.13;;;8.60;99.90;;;;;;5003618;28;20019;-70
2022/04/28 06:30:00;;;;;;;97.93;42.28;;;8.60;99.90;;;;;;4994734;28;20037;-71
2022/04/28 06:32:25;;;;;;;52.00;26.55;;;8.70;99.90;;;;;;5006208;28;20038;-71
2022/04/28 06:34:51;;;;;;;33.28;21.20;;;8.80;99.90;;;;;;4991688;28;20451;-70
2022/04/28 06:37:17;;;;;;;24.52;16.88;;;8.90;99.90;;;;;;4991971;28;20034;-69
2022/04/28 06:39:43;;;;;;;21.38;13.85;;;9.00;99.90;;;;;;5005811;28;20375;-70
2022/04/28 06:42:09;;;;;;;20.55;12.23;;;9.00;99.90;;;;;;4989159;28;20026;-70
2022/04/28 06:44:36;;;;;;;18.27;12.63;;;9.10;99.90;;;;;;5011054;28;20042;-71
2022/04/28 06:47:05;;;;;;;16.88;11.55;;;9.20;99.90;;;;;;5008407;28;20422;-70
2022/04/28 06:49:31;;;;;;;19.23;12.15;;;9.10;99.90;;;;;;4993945;28;20032;-70
2022/04/28 06:51:56;;;;;;;22.52;13.02;;;9.20;99.90;;;;;;5002656;28;20105;-70
2022/04/28 06:54:22;;;;;;;19.08;11.70;;;9.20;99.90;;;;;;5011767;28;20100;-70
2022/04/28 06:56:47;;;;;;;19.92;12.57;;;9.20;99.90;;;;;;5014479;28;20045;-70
2022/04/28 06:59:13;;;;;;;25.83;12.85;;;9.30;99.90;;;;;;5011168;28;20022;-71
2022/04/28 07:01:39;;;;;;;21.13;12.52;;;9.30;99.90;;;;;;5004417;28;20037;-70
2022/04/28 07:04:05;;;;;;;21.33;13.15;;;9.40;99.90;;;;;;5006419;28;20367;-70
2022/04/28 07:06:31;;;;;;;17.40;11.82;;;9.40;99.90;;;;;;5011156;28;20030;-71
2022/04/28 07:08:56;;;;;;;19.63;13.32;;;9.50;99.90;;;;;;5010304;28;20045;-70
2022/04/28 07:11:24;;;;;;;20.08;11.80;;;9.50;99.90;;;;;;4988836;28;20102;-70
2022/04/28 07:13:50;;;;;;;21.73;11.90;;;9.60;99.90;;;;;;5000441;28;20406;-71
2022/04/28 07:16:15;;;;;;;18.33;12.93;;;9.70;99.90;;;;;;4990403;28;20030;-71
2022/04/28 07:18:41;;;;;;;18.88;12.60;;;9.80;99.90;;;;;;5006705;28;20358;-70
2022/04/28 07:21:07;;;;;;;18.88;11.38;;;9.80;99.90;;;;;;5006797;28;20484;-71
2022/04/28 07:23:32;;;;;;;20.55;11.88;;;9.90;99.90;;;;;;5008220;28;20150;-71
2022/04/28 07:25:58;;;;;;;16.90;11.15;;;10.00;99.90;;;;;;5003840;28;20798;-71
2022/04/28 07:28:24;;;;;;;19.88;11.18;;;10.00;99.90;;;;;;5009517;28;20048;-69
2022/04/28 07:30:50;;;;;;;15.80;10.98;;;10.10;99.90;;;;;;5003754;28;20030;-71
2022/04/28 07:33:16;;;;;;;22.88;11.90;;;10.20;99.90;;;;;;5007496;28;20040;-69
2022/04/28 07:35:41;;;;;;;16.90;10.40;;;10.30;99.90;;;;;;5010114;28;20364;-68
2022/04/28 07:38:08;;;;;;;18.17;10.32;;;10.50;99.90;;;;;;5010783;28;20081;-68
2022/04/28 07:40:35;;;;;;;18.95;10.63;;;10.50;99.90;;;;;;5007939;28;20026;-70
2022/04/28 07:43:01;;;;;;;17.23;10.10;;;10.70;99.90;;;;;;4987985;28;20064;-69
2022/04/28 07:45:27;;;;;;;15.32;9.68;;;10.70;99.90;;;;;;5008988;28;20053;-69
2022/04/28 07:47:54;;;;;;;15.82;9.10;;;10.80;99.90;;;;;;5006024;28;20381;-69
2022/04/28 07:50:20;;;;;;;17.30;10.15;;;10.90;99.90;;;;;;5013358;28;20568;-70
2022/04/28 07:52:45;;;;;;;17.48;10.25;;;11.00;99.90;;;;;;5010537;28;20030;-69
2022/04/28 07:55:11;;;;;;;12.93;8.35;;;11.10;99.90;;;;;;5013295;28;20026;-69
2022/04/28 07:57:37;;;;;;;13.30;8.82;;;11.30;99.90;;;;;;5012190;28;20112;-67
2022/04/28 08:00:07;;;;;;;13.52;8.57;;;11.40;99.90;;;;;;4991845;28;20088;-69
2022/04/28 08:02:36;;;;;;;16.13;8.27;;;11.50;99.90;;;;;;4990331;28;20037;-69
2022/04/28 08:05:02;;;;;;;12.82;7.22;;;11.60;99.90;;;;;;5009924;28;20037;-69
2022/04/28 08:07:28;;;;;;;12.98;7.60;;;11.70;99.90;;;;;;4989112;28;20438;-69
2022/04/28 08:09:54;;;;;;;11.13;6.93;;;11.80;99.90;;;;;;5012572;28;20109;-70
2022/04/28 08:12:19;;;;;;;9.70;6.38;;;11.90;99.90;;;;;;4993127;28;20096;-70
2022/04/28 08:14:45;;;;;;;8.63;5.80;;;12.10;99.90;;;;;;5012736;28;20362;-70
2022/04/28 08:17:11;;;;;;;10.10;6.05;;;12.20;99.90;;;;;;4993190;28;20044;-68
2022/04/28 08:19:36;;;;;;;6.57;4.40;;;12.40;99.90;;;;;;5006706;28;20545;-70
2022/04/28 08:22:02;;;;;;;13.82;5.97;;;12.50;99.90;;;;;;5002077;28;20389;-68
2022/04/28 08:24:28;;;;;;;7.07;3.63;;;12.70;99.90;;;;;;5007863;28;20037;-71
2022/04/28 08:26:54;;;;;;;5.82;3.85;;;12.80;99.10;;;;;;4996391;28;20034;-71
2022/04/28 08:29:21;;;;;;;7.45;4.57;;;13.00;96.40;;;;;;4993329;28;20072;-71
2022/04/28 08:31:47;;;;;;;8.18;5.13;;;13.20;98.20;;;;;;5006604;28;20034;-69
2022/04/28 08:34:14;;;;;;;9.98;5.22;;;13.30;99.90;;;;;;4989200;28;20029;-70
2022/04/28 08:36:42;;;;;;;10.05;4.97;;;13.40;99.90;;;;;;5006534;28;20471;-70
2022/04/28 08:39:08;;;;;;;7.30;4.75;;;13.40;99.90;;;;;;5010533;28;20033;-69
2022/04/28 08:41:36;;;;;;;7.80;5.55;;;13.50;99.60;;;;;;5009955;28;20029;-72
2022/04/28 08:44:03;;;;;;;7.75;4.90;;;13.60;99.90;;;;;;5007300;28;20037;-71
2022/04/28 08:49:15;;;;;;;3.92;2.67;;;13.70;96.50;;;;;;5011049;28;20029;-72
2022/04/28 08:51:42;;;;;;;6.80;3.60;;;13.90;80.70;;;;;;5012274;28;20056;-72
2022/04/28 08:54:12;;;;;;;4.78;3.15;;;14.10;82.40;;;;;;4989813;28;20117;-72
2022/04/28 08:56:41;;;;;;;6.82;3.55;;;14.10;84.70;;;;;;5010744;28;20049;-72
2022/04/28 08:59:07;;;;;;;3.97;2.63;;;14.20;76.60;;;;;;4996172;28;20506;-71
2022/04/28 09:01:33;;;;;;;6.38;2.92;;;14.30;74.00;;;;;;5013520;28;20485;-71
2022/04/28 09:04:00;;;;;;;6.13;2.65;;;14.40;68.80;;;;;;5013673;28;20463;-71
2022/04/28 09:06:34;;;;;;;4.35;2.78;;;14.40;69.70;;;;;;5014209;28;20022;-71
2022/04/28 09:09:02;;;;;;;6.00;3.45;;;14.40;69.20;;;;;;5014403;28;20030;-71
2022/04/28 09:11:29;;;;;;;5.57;2.83;;;14.50;68.00;;;;;;5014341;28;20034;-70
2022/04/28 09:14:10;;;;;;;9.93;2.42;;;14.50;65.30;;;;;;5012057;28;20109;-70
2022/04/28 09:16:49;;;;;;;5.47;2.55;;;14.60;65.40;;;;;;4995834;28;20029;-71
2022/04/28 09:19:25;;;;;;;5.95;2.28;;;14.70;62.40;;;;;;5008292;28;20030;-71
2022/04/28 09:21:52;;;;;;;4.13;2.42;;;14.70;63.70;;;;;;4995003;28;20034;-71
2022/04/28 09:24:18;;;;;;;6.45;2.70;;;14.80;61.50;;;;;;5013378;28;20025;-70
2022/04/28 09:26:44;;;;;;;5.63;2.78;;;14.90;62.20;;;;;;5014241;28;20033;-72
2022/04/28 09:29:12;;;;;;;4.25;2.70;;;14.90;62.30;;;;;;4990673;28;20034;-71
2022/04/28 09:31:39;;;;;;;4.18;2.80;;;15.00;60.80;;;;;;5013756;28;20451;-70
2022/04/28 09:34:13;;;;;;;7.00;2.92;;;15.00;61.80;;;;;;5013934;28;20100;-71
2022/04/28 09:36:41;;;;;;;5.22;3.45;;;15.00;62.60;;;;;;5012627;28;20032;-71
2022/04/28 09:39:08;;;;;;;4.30;3.13;;;15.10;63.20;;;;;;4996209;28;20072;-71
2022/04/28 09:44:42;;;;;;;6.38;2.58;;;15.00;62.30;;;;;;4942578;29;20461;-70
2022/04/28 09:47:10;;;;;;;3.63;2.70;;;15.10;63.40;;;;;;4930856;29;20460;-71
2022/04/28 09:49:36;;;;;;;7.22;2.80;;;15.10;62.40;;;;;;4983223;28;20487;-72
2022/04/28 09:52:02;;;;;;;5.97;3.20;;;15.20;61.90;;;;;;5010695;28;20514;-71
2022/04/28 09:54:32;;;;;;;5.13;2.85;;;15.20;59.40;;;;;;5013386;28;20024;-71
2022/04/28 09:56:58;;;;;;;3.67;2.88;;;15.30;61.00;;;;;;4988477;28;20112;-71
2022/04/28 09:59:25;;;;;;;4.90;2.80;;;15.30;59.40;;;;;;5011407;28;20494;-71
2022/04/28 10:01:52;;;;;;;3.90;2.53;;;15.30;59.80;;;;;;5006210;28;20026;-71
2022/04/28 10:04:17;;;;;;;5.22;2.28;;;15.30;57.70;;;;;;5000849;28;20061;-72
2022/04/28 10:06:43;;;;;;;5.95;2.85;;;15.30;58.60;;;;;;5013022;28;20018;-72
2022/04/28 10:09:11;;;;;;;4.85;2.30;;;15.30;57.40;;;;;;4994942;28;20032;-72
2022/04/28 10:11:37;;;;;;;5.40;2.83;;;15.30;57.90;;;;;;5013341;28;20061;-70
2022/04/28 10:14:04;;;;;;;5.15;2.75;;;15.30;59.60;;;;;;5005649;28;20033;-70
2022/04/28 10:16:30;;;;;;;6.00;2.95;;;15.30;59.10;;;;;;4990593;28;20034;-70
2022/04/28 10:19:19;;;;;;;3.92;2.38;;;15.30;58.10;;;;;;5004120;28;20092;-70
2022/04/28 10:22:01;;;;;;;4.45;3.08;;;15.30;59.00;;;;;;5006427;28;20021;-72
2022/04/28 10:32:58;;;;;;;5.30;3.22;;;15.70;58.50;;;;;;5009680;28;20041;-69
2022/04/28 10:35:44;;;;;;;4.15;3.00;;;15.70;58.30;;;;;;4993017;28;20044;-68
2022/04/28 10:38:31;;;;;;;5.70;2.80;;;15.70;59.10;;;;;;5008138;28;20022;-70
2022/04/28 10:41:03;;;;;;;3.55;2.35;;;15.70;59.20;;;;;;4988586;28;20026;-69
2022/04/28 10:43:32;;;;;;;5.85;3.00;;;15.70;59.00;;;;;;5005446;28;20462;-68
2022/04/28 10:46:08;;;;;;;4.10;2.72;;;15.80;59.60;;;;;;5004175;28;20037;-69
2022/04/28 10:48:38;;;;;;;7.13;3.13;;;15.90;60.00;;;;;;5007083;28;20040;-71
2022/04/28 10:51:06;;;;;;;3.40;3.00;;;16.00;59.10;;;;;;5009265;28;20032;-69
2022/04/28 10:53:33;;;;;;;7.28;3.25;;;16.00;59.30;;;;;;5008615;28;20418;-69
2022/04/28 10:56:08;;;;;;;5.95;2.75;;;16.00;59.20;;;;;;5004648;28;20044;-69
2022/04/28 10:58:35;;;;;;;7.85;3.00;;;16.00;58.20;;;;;;5010356;28;20062;-69
2022/04/28 11:01:01;;;;;;;4.50;2.92;;;16.00;58.80;;;;;;5004703;28;20030;-69
2022/04/28 11:03:49;;;;;;;7.00;3.38;;;16.00;58.00;;;;;;4987612;28;20027;-69
2022/04/28 11:06:20;;;;;;;5.88;3.10;;;16.00;57.90;;;;;;4991165;28;20105;-69
2022/04/28 11:08:49;;;;;;;4.53;3.45;;;16.10;59.00;;;;;;5010936;28;20030;-70
2022/04/28 11:11:15;;;;;;;5.93;3.17;;;16.10;58.40;;;;;;4997984;28;20053;-70
2022/04/28 11:13:45;;;;;;;4.03;3.20;;;16.10;57.50;;;;;;4996443;28;20090;-70
2022/04/28 11:16:12;;;;;;;4.18;2.97;;;16.10;57.30;;;;;;4998882;28;20033;-69
2022/04/28 11:18:38;;;;;;;3.60;2.50;;;16.20;56.30;;;;;;5001691;28;20030;-69
2022/04/28 11:21:04;;;;;;;5.38;3.00;;;16.10;56.60;;;;;;5007995;28;20032;-69
2022/04/28 11:23:34;;;;;;;4.45;2.88;;;16.10;57.30;;;;;;5010652;28;20076;-69
2022/04/28 11:26:02;;;;;;;3.83;3.03;;;16.10;57.00;;;;;;5015970;28;20021;-69
2022/04/28 11:28:29;;;;;;;5.05;2.45;;;16.10;56.50;;;;;;5009996;28;20030;-69
2022/04/28 11:30:55;;;;;;;4.60;2.60;;;16.20;58.20;;;;;;5011438;28;20129;-70
2022/04/28 11:33:21;;;;;;;4.30;3.08;;;16.20;57.50;;;;;;5011163;28;20041;-70
2022/04/28 11:35:47;;;;;;;4.03;3.30;;;16.20;58.10;;;;;;5014176;28;20490;-69
2022/04/28 11:38:13;;;;;;;4.55;2.72;;;16.10;57.10;;;;;;4977731;28;20034;-69
2022/04/28 11:40:39;;;;;;;5.38;2.92;;;16.10;57.10;;;;;;4997150;28;20052;-69
2022/04/28 11:43:06;;;;;;;4.35;3.00;;;16.10;56.40;;;;;;5013265;28;20029;-69
2022/04/28 11:45:32;;;;;;;3.95;2.95;;;16.10;57.70;;;;;;5014606;28;20025;-69
2022/04/28 11:48:03;;;;;;;4.55;3.05;;;16.10;56.70;;;;;;4989362;28;20025;-70
2022/04/28 11:50:32;;;;;;;5.75;2.67;;;16.10;55.70;;;;;;5010516;28;20078;-70
2022/04/28 11:53:06;;;;;;;3.35;2.58;;;16.10;56.90;;;;;;5020321;28;20034;-69
2022/04/28 11:55:35;;;;;;;6.10;3.40;;;16.20;57.70;;;;;;5011615;28;20358;-69
2022/04/28 11:58:01;;;;;;;4.43;2.78;;;16.40;56.90;;;;;;5014381;28;20026;-70
2022/04/28 12:00:27;;;;;;;4.85;3.22;;;16.50;56.80;;;;;;5012484;28;20037;-70
2022/04/28 12:02:54;;;;;;;6.95;3.45;;;16.50;56.40;;;;;;5009837;28;20748;-70
2022/04/28 12:05:22;;;;;;;3.53;2.33;;;16.40;56.50;;;;;;4994892;28;20034;-69
2022/04/28 12:07:52;;;;;;;6.68;4.05;;;16.30;57.40;;;;;;5012734;28;20069;-69
2022/04/28 12:15:56;;;;;;;4.63;2.80;;;16.40;55.90;;;;;;5013508;28;20033;-70
2022/04/28 12:21:21;;;;;;;4.40;2.63;;;16.60;55.40;;;;;;4989923;28;20035;-71
2022/04/28 12:23:50;;;;;;;4.95;2.92;;;16.70;55.60;;;;;;5005429;28;20037;-71
2022/04/28 12:26:19;;;;;;;4.78;3.10;;;16.70;55.70;;;;;;5008899;28;20054;-71
2022/04/28 12:28:46;;;;;;;5.65;2.95;;;16.70;54.70;;;;;;5007409;28;20418;-71
2022/04/28 12:31:14;;;;;;;5.28;3.10;;;16.60;54.90;;;;;;5009265;28;20030;-71
2022/04/28 12:33:41;;;;;;;4.40;3.00;;;16.50;55.90;;;;;;4988952;28;20025;-71
2022/04/28 12:36:13;;;;;;;5.78;2.63;;;16.60;57.10;;;;;;5010387;28;20479;-71
2022/04/28 12:38:44;;;;;;;7.45;3.10;;;16.60;57.30;;;;;;5012087;28;20483;-71
2022/04/28 12:41:18;;;;;;;5.65;3.22;;;16.70;56.90;;;;;;4985776;28;20034;-71
2022/04/28 12:43:49;;;;;;;5.28;3.17;;;16.60;56.40;;;;;;5009675;28;20033;-71
2022/04/28 12:46:33;;;;;;;5.65;2.95;;;16.70;56.20;;;;;;5007306;28;20026;-71
2022/04/28 12:49:01;;;;;;;5.47;2.85;;;16.80;56.60;;;;;;4988591;28;20029;-71
2022/04/28 12:51:28;;;;;;;3.75;2.80;;;16.80;57.20;;;;;;4990972;28;20557;-72
2022/04/28 12:54:07;;;;;;;3.78;2.25;;;16.80;56.80;;;;;;4996246;28;20088;-71
2022/04/28 12:56:33;;;;;;;5.97;2.90;;;16.80;56.40;;;;;;5007043;28;20026;-71
2022/04/28 12:59:00;;;;;;;4.93;3.10;;;16.90;56.50;;;;;;5004232;28;20026;-71
2022/04/28 13:01:28;;;;;;;4.00;2.72;;;16.90;56.30;;;;;;4988331;28;20037;-72
2022/04/28 13:03:59;;;;;;;3.92;3.08;;;16.90;57.00;;;;;;4987443;28;20032;-72
2022/04/28 13:06:30;;;;;;;4.45;3.33;;;16.90;56.90;;;;;;5010277;28;20073;-71
2022/04/28 13:08:57;;;;;;;5.35;3.42;;;16.90;57.90;;;;;;5009892;28;20075;-72
2022/04/28 13:11:25;;;;;;;5.40;3.47;;;16.90;58.60;;;;;;4988937;28;20034;-71
2022/04/28 13:13:56;;;;;;;47.08;13.10;;;16.90;58.90;;;;;;5010764;28;20026;-72
2022/04/28 13:16:22;;;;;;;5.90;3.67;;;16.90;58.50;;;;;;5002323;28;20080;-71
2022/04/28 13:18:48;;;;;;;6.13;2.97;;;17.10;57.40;;;;;;5009164;28;20033;-71
2022/04/28 13:21:15;;;;;;;5.80;3.33;;;17.10;57.60;;;;;;4999110;28;20487;-71
2022/04/28 13:23:44;;;;;;;6.78;3.45;;;17.10;57.10;;;;;;5003190;28;20022;-71